createdAt,value
2023-09-05T00:00:07.990Z,9.07
2023-09-05T00:02:36.074Z,8.60
2023-09-05T00:05:07.067Z,8.85
2023-09-05T00:07:36.490Z,9.20
2023-09-05T00:10:06.956Z,8.55
2023-09-05T00:12:35.679Z,8.07
2023-09-05T00:15:04.350Z,8.95
2023-09-05T00:17:33.100Z,9.05
2023-09-05T00:20:01.184Z,9.20
2023-09-05T00:22:29.382Z,8.45
2023-09-05T00:24:57.511Z,8.38
2023-09-05T00:27:27.149Z,8.15
2023-09-05T00:29:55.852Z,8.32
2023-09-05T00:32:23.990Z,8.55
2023-09-05T00:34:52.100Z,8.73
2023-09-05T00:37:23.754Z,8.90
2023-09-05T00:39:52.456Z,8.27
2023-09-05T00:42:20.580Z,8.27
2023-09-05T00:44:50.398Z,8.45
2023-09-05T00:47:23.582Z,8.65
2023-09-05T00:49:51.844Z,8.70
2023-09-05T00:52:23.424Z,7.55
2023-09-05T00:54:52.103Z,7.03
2023-09-05T00:57:20.241Z,7.60
2023-09-05T00:59:49.829Z,7.13
2023-09-05T01:02:17.932Z,8.05
2023-09-05T01:04:46.216Z,7.75
2023-09-05T01:07:19.599Z,7.78
2023-09-05T01:09:55.808Z,7.22
2023-09-05T01:12:24.453Z,7.30
2023-09-05T01:14:54.688Z,7.82
2023-09-05T01:17:22.791Z,7.43
2023-09-05T01:19:54.721Z,7.32
2023-09-05T01:22:30.398Z,7.00
2023-09-05T01:25:00.218Z,7.45
2023-09-05T01:27:29.686Z,7.60
2023-09-05T01:29:58.407Z,7.35
2023-09-05T01:32:27.379Z,7.60
2023-09-05T01:34:55.497Z,7.78
2023-09-05T01:37:25.404Z,7.50
2023-09-05T01:39:53.469Z,7.88
2023-09-05T01:42:23.099Z,8.10
2023-09-05T01:44:51.193Z,8.05
2023-09-05T01:47:19.323Z,8.18
2023-09-05T01:49:47.402Z,7.32
2023-09-05T01:52:15.541Z,7.57
2023-09-05T01:54:43.841Z,7.00
2023-09-05T01:57:11.917Z,7.25
2023-09-05T01:59:41.329Z,7.93
2023-09-05T02:02:09.492Z,8.07
2023-09-05T02:04:37.627Z,7.63
2023-09-05T02:07:09.991Z,8.20
2023-09-05T02:09:38.108Z,8.15
2023-09-05T02:12:06.712Z,7.78
2023-09-05T02:14:37.441Z,8.93
2023-09-05T02:17:07.009Z,7.80
2023-09-05T02:19:35.193Z,8.13
2023-09-05T02:22:04.782Z,9.32
2023-09-05T02:24:32.972Z,8.68
2023-09-05T02:27:02.954Z,8.50
2023-09-05T02:29:31.116Z,9.10
2023-09-05T02:31:59.197Z,8.30
2023-09-05T02:34:28.676Z,8.90
2023-09-05T02:36:57.014Z,8.20
2023-09-05T02:39:25.075Z,8.85
2023-09-05T02:41:53.490Z,9.50
2023-09-05T02:44:21.627Z,9.50
2023-09-05T02:46:50.384Z,8.30
2023-09-05T02:49:18.491Z,9.07
2023-09-05T02:51:47.943Z,9.05
2023-09-05T02:54:16.189Z,9.40
2023-09-05T02:56:44.948Z,8.52
2023-09-05T02:59:13.117Z,9.27
2023-09-05T03:01:41.253Z,9.00
2023-09-05T03:04:09.628Z,8.93
2023-09-05T03:06:38.016Z,9.70
2023-09-05T03:09:07.681Z,8.95
2023-09-05T03:11:35.704Z,10.15
2023-09-05T03:14:04.109Z,9.82
2023-09-05T03:16:32.996Z,9.52
2023-09-05T03:19:01.144Z,9.80
2023-09-05T03:21:29.564Z,9.85
2023-09-05T03:23:57.879Z,9.13
2023-09-05T03:26:27.434Z,9.88
2023-09-05T03:28:55.500Z,9.68
2023-09-05T03:31:24.160Z,10.43
2023-09-05T03:33:52.562Z,10.45
2023-09-05T03:36:20.798Z,9.95
2023-09-05T03:38:49.087Z,9.30
2023-09-05T03:41:17.545Z,10.07
2023-09-05T03:43:47.043Z,10.77
2023-09-05T03:46:15.366Z,10.40
2023-09-05T03:48:43.600Z,10.20
2023-09-05T03:51:11.691Z,10.35
2023-09-05T03:53:39.754Z,10.63
2023-09-05T03:56:07.824Z,10.95
2023-09-05T03:58:35.919Z,10.13
2023-09-05T04:01:05.408Z,9.90
2023-09-05T04:03:34.799Z,10.02
2023-09-05T04:06:03.138Z,10.65
2023-09-05T04:08:31.249Z,10.98
2023-09-05T04:11:00.989Z,10.45
2023-09-05T04:13:29.274Z,10.65
2023-09-05T04:15:57.983Z,11.65
2023-09-05T04:18:27.541Z,10.30
2023-09-05T04:21:00.074Z,10.52
2023-09-05T04:23:28.601Z,11.90
2023-09-05T04:26:01.461Z,11.90
2023-09-05T04:28:30.310Z,11.18
2023-09-05T04:31:03.012Z,11.23
2023-09-05T04:33:38.548Z,12.20
2023-09-05T04:36:10.232Z,11.77
2023-09-05T04:38:38.582Z,12.07
2023-09-05T04:41:09.319Z,11.93
2023-09-05T04:43:37.826Z,11.38
2023-09-05T04:46:07.406Z,12.38
2023-09-05T04:48:36.938Z,11.68
2023-09-05T04:51:05.720Z,11.48
2023-09-05T04:53:34.494Z,11.82
2023-09-05T04:56:04.109Z,11.68
2023-09-05T04:58:32.917Z,11.40
2023-09-05T05:01:03.670Z,11.85
2023-09-05T05:03:32.433Z,11.55
2023-09-05T05:06:01.919Z,11.52
2023-09-05T05:08:29.987Z,12.20
2023-09-05T05:10:58.085Z,11.20
2023-09-05T05:13:26.181Z,11.32
2023-09-05T05:15:54.355Z,12.10
2023-09-05T05:18:22.445Z,11.73
2023-09-05T05:20:50.554Z,12.15
2023-09-05T05:23:20.655Z,11.38
2023-09-05T05:25:48.970Z,11.30
2023-09-05T05:28:17.109Z,11.73
2023-09-05T05:30:45.784Z,11.20
2023-09-05T05:33:13.852Z,12.40
2023-09-05T05:35:42.681Z,12.10
2023-09-05T05:38:10.757Z,12.00
2023-09-05T05:40:40.175Z,12.27
2023-09-05T05:43:08.647Z,11.98
2023-09-05T05:45:36.839Z,12.98
2023-09-05T05:48:08.517Z,11.13
2023-09-05T05:50:36.821Z,12.18
2023-09-05T05:53:05.202Z,13.48
2023-09-05T05:55:33.371Z,13.18
2023-09-05T05:58:02.872Z,12.18
2023-09-05T06:00:31.421Z,12.40
2023-09-05T06:02:59.878Z,12.25
2023-09-05T06:05:28.302Z,11.65
2023-09-05T06:07:57.447Z,13.23
2023-09-05T06:10:25.702Z,13.90
2023-09-05T06:12:53.893Z,12.93
2023-09-05T06:15:25.652Z,12.98
2023-09-05T06:17:54.155Z,12.43
2023-09-05T06:20:23.707Z,13.05
2023-09-05T06:22:55.179Z,12.68
2023-09-05T06:25:24.690Z,13.23
2023-09-05T06:27:52.847Z,12.25
2023-09-05T06:30:21.391Z,12.90
2023-09-05T06:32:51.178Z,12.13
2023-09-05T06:35:19.435Z,12.85
2023-09-05T06:37:47.477Z,13.25
2023-09-05T06:40:16.438Z,12.35
2023-09-05T06:42:46.987Z,12.68
2023-09-05T06:45:15.167Z,12.10
2023-09-05T06:47:43.313Z,13.25
2023-09-05T06:50:13.179Z,13.13
2023-09-05T06:52:41.346Z,11.45
2023-09-05T06:55:10.023Z,12.38
2023-09-05T06:57:38.090Z,12.43
2023-09-05T07:00:06.910Z,11.60
2023-09-05T07:02:35.058Z,12.55
2023-09-05T07:05:04.302Z,11.90
2023-09-05T07:07:33.748Z,12.20
2023-09-05T07:10:01.863Z,11.90
2023-09-05T07:12:29.916Z,11.70
2023-09-05T07:14:57.929Z,11.55
2023-09-05T07:17:26.125Z,10.85
2023-09-05T07:19:54.299Z,10.98
2023-09-05T07:22:23.318Z,10.45
2023-09-05T07:24:52.877Z,10.13
2023-09-05T07:27:21.569Z,11.23
2023-09-05T07:29:50.139Z,10.52
2023-09-05T07:32:18.302Z,10.70
2023-09-05T07:34:46.371Z,10.02
2023-09-05T07:37:17.136Z,10.30
2023-09-05T07:39:46.078Z,9.73
2023-09-05T07:42:15.533Z,9.23
2023-09-05T07:44:43.705Z,9.15
2023-09-05T07:47:11.806Z,9.05
2023-09-05T07:49:40.445Z,8.63
2023-09-05T07:52:08.715Z,8.07
2023-09-05T07:54:38.057Z,8.15
2023-09-05T07:57:06.475Z,8.02
2023-09-05T07:59:36.466Z,8.02
2023-09-05T08:02:06.282Z,8.55
2023-09-05T08:04:34.401Z,7.90
2023-09-05T08:07:02.480Z,7.95
2023-09-05T08:09:30.609Z,7.32
2023-09-05T08:11:59.256Z,7.30
2023-09-05T08:14:27.441Z,7.43
2023-09-05T08:16:57.332Z,7.45
2023-09-05T08:19:25.919Z,7.25
2023-09-05T08:21:54.308Z,7.10
2023-09-05T08:24:22.368Z,7.03
2023-09-05T08:26:50.444Z,6.60
2023-09-05T08:29:20.234Z,7.05
2023-09-05T08:31:48.415Z,6.93
2023-09-05T08:34:17.912Z,6.50
2023-09-05T08:36:46.103Z,6.38
2023-09-05T08:39:14.201Z,6.35
2023-09-05T08:41:42.377Z,6.55
2023-09-05T08:44:10.601Z,6.50
2023-09-05T08:46:40.552Z,6.93
2023-09-05T08:49:08.853Z,5.97
2023-09-05T08:51:42.125Z,6.15
2023-09-05T08:54:14.591Z,5.60
2023-09-05T08:56:42.992Z,5.97
2023-09-05T08:59:11.502Z,5.63
2023-09-05T09:01:42.359Z,5.80
2023-09-05T09:04:10.951Z,5.82
2023-09-05T09:06:40.973Z,5.45
2023-09-05T09:09:09.083Z,5.65
2023-09-05T09:11:37.237Z,5.80
2023-09-05T09:14:05.388Z,5.97
2023-09-05T09:16:33.592Z,5.18
2023-09-05T09:19:04.769Z,5.78
2023-09-05T09:21:34.147Z,4.87
2023-09-05T09:24:09.304Z,4.88
2023-09-05T09:29:09.764Z,4.60
2023-09-05T09:31:38.931Z,4.45
2023-09-05T09:34:08.865Z,4.53
2023-09-05T09:36:38.467Z,4.82
2023-09-05T09:39:11.318Z,4.90
2023-09-05T09:41:46.234Z,4.55
2023-09-05T09:44:27.142Z,4.25
2023-09-05T09:46:57.320Z,4.38
2023-09-05T09:49:26.262Z,4.15
2023-09-05T09:51:58.447Z,4.63
2023-09-05T09:57:05.232Z,4.93
2023-09-05T09:59:36.569Z,4.57
2023-09-05T10:02:10.734Z,4.03
2023-09-05T10:04:43.561Z,3.97
2023-09-05T10:07:16.750Z,4.30
2023-09-05T10:09:49.236Z,4.45
2023-09-05T10:12:20.114Z,4.78
2023-09-05T10:14:50.546Z,3.95
2023-09-05T10:17:21.018Z,4.40
2023-09-05T10:19:52.159Z,4.60
2023-09-05T10:22:20.222Z,4.40
2023-09-05T10:24:50.455Z,4.13
2023-09-05T10:27:18.794Z,4.72
2023-09-05T10:29:48.109Z,4.20
2023-09-05T10:32:19.541Z,3.80
2023-09-05T10:35:08.921Z,3.85
2023-09-05T10:37:51.663Z,4.00
2023-09-05T10:40:34.753Z,4.18
2023-09-05T10:43:05.029Z,3.90
2023-09-05T10:45:35.181Z,3.90
2023-09-05T10:48:06.568Z,4.18
2023-09-05T10:50:34.826Z,3.65
2023-09-05T10:53:27.748Z,3.80
2023-09-05T10:55:57.522Z,3.65
2023-09-05T10:58:46.843Z,3.42
2023-09-05T11:01:49.580Z,3.92
2023-09-05T11:04:35.798Z,3.70
2023-09-05T11:07:07.316Z,4.03
2023-09-05T11:09:49.722Z,3.73
2023-09-05T11:12:20.507Z,4.10
2023-09-05T11:14:49.556Z,3.20
2023-09-05T11:17:19.508Z,3.30
2023-09-05T11:19:49.414Z,3.70
2023-09-05T11:22:22.310Z,3.85
2023-09-05T11:24:53.107Z,3.42
2023-09-05T11:27:24.974Z,3.60
2023-09-05T11:29:57.069Z,3.92
2023-09-05T11:32:30.899Z,3.47
2023-09-05T11:34:59.597Z,4.07
2023-09-05T11:37:31.220Z,4.20
2023-09-05T11:40:11.588Z,4.93
2023-09-05T11:42:41.445Z,4.80
2023-09-05T11:45:18.606Z,4.35
2023-09-05T11:47:47.672Z,4.10
2023-09-05T11:50:16.444Z,4.47
2023-09-05T11:52:44.787Z,4.40
2023-09-05T11:55:13.358Z,4.07
2023-09-05T11:57:43.021Z,3.92
2023-09-05T12:00:18.361Z,4.10
2023-09-05T12:02:47.021Z,4.00
2023-09-05T12:05:15.404Z,4.15
2023-09-05T12:07:43.519Z,4.18
2023-09-05T12:10:11.797Z,3.80
2023-09-05T12:12:39.945Z,4.07
2023-09-05T12:15:11.516Z,3.80
2023-09-05T12:17:39.717Z,3.60
2023-09-05T12:20:11.247Z,3.20
2023-09-05T12:22:39.401Z,3.53
2023-09-05T12:25:18.819Z,3.80
2023-09-05T12:27:50.527Z,3.50
2023-09-05T12:30:31.449Z,3.15
2023-09-05T12:33:01.057Z,3.13
2023-09-05T12:35:30.823Z,3.42
2023-09-05T12:38:01.285Z,3.10
2023-09-05T12:40:30.059Z,2.95
2023-09-05T12:42:58.204Z,2.97
2023-09-05T12:45:26.662Z,2.90
2023-09-05T12:47:56.251Z,3.30
2023-09-05T12:50:31.029Z,3.50
2023-09-05T12:53:02.095Z,3.03
2023-09-05T12:55:34.149Z,3.17
2023-09-05T12:58:04.893Z,2.90
2023-09-05T13:00:33.736Z,2.72
2023-09-05T13:03:04.650Z,2.85
2023-09-05T13:05:32.949Z,3.50
2023-09-05T13:08:01.539Z,3.28
2023-09-05T13:10:30.093Z,4.38
2023-09-05T13:13:01.797Z,3.30
2023-09-05T13:15:31.571Z,3.40
2023-09-05T13:18:01.087Z,3.08
2023-09-05T13:20:32.694Z,2.85
2023-09-05T13:23:01.167Z,3.10
2023-09-05T13:25:34.413Z,2.90
2023-09-05T13:28:05.955Z,2.65
2023-09-05T13:30:35.223Z,2.60
2023-09-05T13:33:03.846Z,3.00
2023-09-05T13:35:33.698Z,2.95
2023-09-05T13:38:01.810Z,2.88
2023-09-05T13:40:30.742Z,2.85
2023-09-05T13:42:59.380Z,2.67
2023-09-05T13:45:28.177Z,3.00
2023-09-05T13:47:57.407Z,2.78
2023-09-05T13:50:26.231Z,3.10
2023-09-05T13:52:55.783Z,2.72
2023-09-05T13:55:24.018Z,2.60
2023-09-05T13:57:52.327Z,2.80
2023-09-05T14:00:23.604Z,3.08
2023-09-05T14:02:51.984Z,2.97
2023-09-05T14:05:20.318Z,2.92
2023-09-05T14:07:48.580Z,2.83
2023-09-05T14:10:18.032Z,3.05
2023-09-05T14:12:46.378Z,2.83
2023-09-05T14:15:14.826Z,3.10
2023-09-05T14:17:44.266Z,2.80
2023-09-05T14:20:13.642Z,2.75
2023-09-05T14:22:41.823Z,2.83
2023-09-05T14:25:10.439Z,2.70
2023-09-05T14:27:39.909Z,2.80
2023-09-05T14:30:09.275Z,2.70
2023-09-05T14:32:37.411Z,3.20
2023-09-05T14:35:05.860Z,3.05
2023-09-05T14:37:33.921Z,2.88
2023-09-05T14:40:02.140Z,3.20
2023-09-05T14:42:35.238Z,3.08
2023-09-05T14:45:08.447Z,3.40
2023-09-05T14:47:36.793Z,2.97
2023-09-05T14:50:05.399Z,2.92
2023-09-05T14:52:35.922Z,3.30
2023-09-05T14:55:04.625Z,3.05
2023-09-05T14:57:32.729Z,3.70
2023-09-05T15:00:00.913Z,3.08
2023-09-05T15:02:30.422Z,3.10
2023-09-05T15:04:58.494Z,2.85
2023-09-05T15:07:26.652Z,2.80
2023-09-05T15:09:54.807Z,3.00
2023-09-05T15:12:22.940Z,2.80
2023-09-05T15:14:51.020Z,2.80
2023-09-05T15:17:19.142Z,2.65
2023-09-05T15:19:48.948Z,2.85
2023-09-05T15:22:17.277Z,2.67
2023-09-05T15:24:45.342Z,2.70
2023-09-05T15:27:14.536Z,2.75
2023-09-05T15:29:42.971Z,3.10
2023-09-05T15:32:11.125Z,2.30
2023-09-05T15:34:39.696Z,2.88
2023-09-05T15:37:09.185Z,2.60
2023-09-05T15:39:37.358Z,3.33
2023-09-05T15:42:06.146Z,3.15
2023-09-05T15:44:34.269Z,4.25
2023-09-05T15:47:02.442Z,2.80
2023-09-05T15:49:30.652Z,4.20
2023-09-05T15:51:59.950Z,3.10
2023-09-05T15:54:31.706Z,3.10
2023-09-05T15:57:00.106Z,2.90
2023-09-05T15:59:28.964Z,4.10
2023-09-05T16:01:57.079Z,3.05
2023-09-05T16:04:25.326Z,3.15
2023-09-05T16:06:53.463Z,2.83
2023-09-05T16:09:22.211Z,3.03
2023-09-05T16:11:51.881Z,3.03
2023-09-05T16:14:20.082Z,2.67
2023-09-05T16:16:48.974Z,2.72
2023-09-05T16:19:17.600Z,2.70
2023-09-05T16:21:46.601Z,2.50
2023-09-05T16:24:14.776Z,2.80
2023-09-05T16:26:44.538Z,2.70
2023-09-05T16:29:14.141Z,2.57
2023-09-05T16:31:42.503Z,2.72
2023-09-05T16:34:10.623Z,2.40
2023-09-05T16:36:39.474Z,2.85
2023-09-05T16:39:08.569Z,2.70
2023-09-05T16:41:36.739Z,3.10
2023-09-05T16:44:05.066Z,2.80
2023-09-05T16:46:34.463Z,2.97
2023-09-05T16:49:02.662Z,3.10
2023-09-05T16:51:32.851Z,2.88
2023-09-05T16:54:01.021Z,3.05
2023-09-05T16:56:29.100Z,2.88
2023-09-05T16:59:00.364Z,3.10
2023-09-05T17:01:31.133Z,2.90
2023-09-05T17:04:00.965Z,3.33
2023-09-05T17:06:29.398Z,3.00
2023-09-05T17:08:57.614Z,2.63
2023-09-05T17:11:25.781Z,3.00
2023-09-05T17:13:53.831Z,2.90
2023-09-05T17:16:22.029Z,3.08
2023-09-05T17:18:50.241Z,3.17
2023-09-05T17:21:19.844Z,2.90
2023-09-05T17:23:47.974Z,2.65
2023-09-05T17:26:16.168Z,2.78
2023-09-05T17:28:44.232Z,2.65
2023-09-05T17:31:12.389Z,3.10
2023-09-05T17:33:40.699Z,2.88
2023-09-05T17:36:12.625Z,3.03
2023-09-05T17:38:42.501Z,3.28
2023-09-05T17:41:10.763Z,3.17
2023-09-05T17:43:38.900Z,3.17
2023-09-05T17:46:07.792Z,3.58
2023-09-05T17:48:36.398Z,3.10
2023-09-05T17:51:04.611Z,3.40
2023-09-05T17:53:34.045Z,3.40
2023-09-05T17:56:03.574Z,3.50
2023-09-05T17:58:31.737Z,3.38
2023-09-05T18:00:59.975Z,2.95
2023-09-05T18:03:28.173Z,3.40
2023-09-05T18:05:56.310Z,3.17
2023-09-05T18:08:24.507Z,3.15
2023-09-05T18:11:06.196Z,3.58
2023-09-05T18:13:34.838Z,3.72
2023-09-05T18:16:07.444Z,3.30
2023-09-05T18:18:36.449Z,2.92
2023-09-05T18:21:05.190Z,3.15
2023-09-05T18:23:34.198Z,3.78
2023-09-05T18:26:07.605Z,3.45
2023-09-05T18:28:37.216Z,3.13
2023-09-05T18:31:06.904Z,3.58
2023-09-05T18:33:35.499Z,3.50
2023-09-05T18:36:04.692Z,3.78
2023-09-05T18:38:33.592Z,3.78
2023-09-05T18:41:01.668Z,3.50
2023-09-05T18:43:31.754Z,3.80
2023-09-05T18:46:00.025Z,3.30
2023-09-05T18:48:35.069Z,3.40
2023-09-05T18:51:03.403Z,3.53
2023-09-05T18:53:31.657Z,3.45
2023-09-05T18:56:06.528Z,3.42
2023-09-05T18:58:36.911Z,3.60
2023-09-05T19:01:05.955Z,3.65
2023-09-05T19:03:34.608Z,3.83
2023-09-05T19:06:02.909Z,3.47
2023-09-05T19:08:31.152Z,3.65
2023-09-05T19:11:03.941Z,3.75
2023-09-05T19:13:33.061Z,3.53
2023-09-05T19:16:05.669Z,3.75
2023-09-05T19:18:35.669Z,4.05
2023-09-05T19:21:04.458Z,3.92
2023-09-05T19:23:32.838Z,4.00
2023-09-05T19:26:01.572Z,3.83
2023-09-05T19:28:30.606Z,3.58
2023-09-05T19:30:58.976Z,3.70
2023-09-05T19:33:30.839Z,3.85
2023-09-05T19:35:59.168Z,3.72
2023-09-05T19:38:27.377Z,4.18
2023-09-05T19:40:55.689Z,3.78
2023-09-05T19:43:24.179Z,4.30
2023-09-05T19:45:52.790Z,4.18
2023-09-05T19:48:21.393Z,4.60
2023-09-05T19:50:50.844Z,5.07
2023-09-05T19:53:18.870Z,4.90
2023-09-05T19:55:46.881Z,5.13
2023-09-05T19:58:18.553Z,4.90
2023-09-05T20:00:46.803Z,5.50
2023-09-05T20:03:15.294Z,5.10
2023-09-05T20:05:43.645Z,5.03
2023-09-05T20:08:13.279Z,4.80
2023-09-05T20:10:41.344Z,5.13
2023-09-05T20:13:09.525Z,4.78
2023-09-05T20:15:38.546Z,5.10
2023-09-05T20:18:07.081Z,5.20
2023-09-05T20:20:37.336Z,5.78
2023-09-05T20:23:05.859Z,5.38
2023-09-05T20:25:35.368Z,5.88
2023-09-05T20:28:03.612Z,5.93
2023-09-05T20:30:34.173Z,6.03
2023-09-05T20:33:02.662Z,5.75
2023-09-05T20:35:30.831Z,6.32
2023-09-05T20:37:58.895Z,6.22
2023-09-05T20:40:26.999Z,6.90
2023-09-05T20:42:56.626Z,7.35
2023-09-05T20:45:28.630Z,6.93
2023-09-05T20:50:24.877Z,6.10
2023-09-05T20:52:52.922Z,6.05
2023-09-05T20:55:20.945Z,6.35
2023-09-05T20:57:49.033Z,6.30
2023-09-05T21:00:20.166Z,6.10
2023-09-05T21:02:48.344Z,6.47
2023-09-05T21:05:16.653Z,6.05
2023-09-05T21:07:44.705Z,6.43
2023-09-05T21:10:12.932Z,6.55
2023-09-05T21:12:41.513Z,6.97
2023-09-05T21:15:12.960Z,7.25
2023-09-05T21:17:44.940Z,6.73
2023-09-05T21:20:15.285Z,6.70
2023-09-05T21:22:44.161Z,7.22
2023-09-05T21:25:13.442Z,7.15
2023-09-05T21:27:41.996Z,6.97
2023-09-05T21:30:11.750Z,6.28
2023-09-05T21:32:40.633Z,6.70
2023-09-05T21:35:10.720Z,7.20
2023-09-05T21:37:39.178Z,6.63
2023-09-05T21:40:08.631Z,6.80
2023-09-05T21:42:36.685Z,7.78
2023-09-05T21:45:07.040Z,6.85
2023-09-05T21:47:36.018Z,7.13
2023-09-05T21:50:04.225Z,7.32
2023-09-05T21:52:33.736Z,7.55
2023-09-05T21:55:01.969Z,7.25
2023-09-05T21:57:30.178Z,7.32
2023-09-05T21:59:58.242Z,7.63
2023-09-05T22:02:26.939Z,7.20
2023-09-05T22:04:55.077Z,7.05
2023-09-05T22:07:24.493Z,6.88
2023-09-05T22:09:54.331Z,7.47
2023-09-05T22:12:22.536Z,7.50
2023-09-05T22:14:50.749Z,7.78
2023-09-05T22:17:18.787Z,7.65
2023-09-05T22:19:48.141Z,7.43
2023-09-05T22:22:16.413Z,7.15
2023-09-05T22:24:44.518Z,7.50
2023-09-05T22:27:14.057Z,7.65
2023-09-05T22:29:42.170Z,6.97
2023-09-05T22:32:11.429Z,7.28
2023-09-05T22:34:43.475Z,6.97
2023-09-05T22:37:11.784Z,6.88
2023-09-05T22:39:39.968Z,7.28
2023-09-05T22:42:08.664Z,7.45
2023-09-05T22:44:38.134Z,7.78
2023-09-05T22:47:06.559Z,7.10
2023-09-05T22:49:35.002Z,7.68
2023-09-05T22:52:03.728Z,7.50
2023-09-05T22:54:31.970Z,7.45
2023-09-05T22:57:00.231Z,7.65
2023-09-05T22:59:28.557Z,8.23
2023-09-05T23:01:57.951Z,7.95
2023-09-05T23:04:29.105Z,8.07
2023-09-05T23:06:57.270Z,8.15
2023-09-05T23:09:27.894Z,8.52
2023-09-05T23:11:58.090Z,8.57
2023-09-05T23:14:28.333Z,7.90
2023-09-05T23:16:58.004Z,8.38
2023-09-05T23:19:26.487Z,8.90
2023-09-05T23:21:57.414Z,8.68
2023-09-05T23:24:25.680Z,8.45
2023-09-05T23:26:53.813Z,8.90
2023-09-05T23:29:21.864Z,8.50
2023-09-05T23:31:50.393Z,8.45
2023-09-05T23:34:20.028Z,8.55
2023-09-05T23:36:48.251Z,8.75
2023-09-05T23:39:16.402Z,8.63
2023-09-05T23:41:44.762Z,9.15
2023-09-05T23:44:12.838Z,9.40
2023-09-05T23:46:41.206Z,9.05
2023-09-05T23:49:11.730Z,9.35
2023-09-05T23:51:41.770Z,8.43
2023-09-05T23:54:10.045Z,9.18
2023-09-05T23:56:38.179Z,8.98
2023-09-05T23:59:06.450Z,9.00
